sensor_id;sensor_type;location;lat;lon;timestamp;P1;durP1;ratioP1;P2;durP2;ratioP2
5219;SDS011;2629;50.768;7.308;2022-07-05T00:02:10;3.20;;;1.93;;
5219;SDS011;2629;50.768;7.308;2022-07-05T00:04:38;4.50;;;1.93;;
5219;SDS011;2629;50.768;7.308;2022-07-05T00:07:09;3.63;;;2.43;;
5219;SDS011;2629;50.768;7.308;2022-07-05T00:09:47;3.77;;;2.37;;
5219;SDS011;2629;50.768;7.308;2022-07-05T00:12:16;3.40;;;2.10;;
5219;SDS011;2629;50.768;7.308;2022-07-05T00:14:47;4.50;;;2.77;;
5219;SDS011;2629;50.768;7.308;2022-07-05T00:17:16;4.50;;;2.50;;
5219;SDS011;2629;50.768;7.308;2022-07-05T00:19:44;6.00;;;2.07;;
5219;SDS011;2629;50.768;7.308;2022-07-05T00:22:15;5.53;;;2.10;;
5219;SDS011;2629;50.768;7.308;2022-07-05T00:24:43;3.07;;;1.93;;
5219;SDS011;2629;50.768;7.308;2022-07-05T00:27:13;3.80;;;2.20;;
5219;SDS011;2629;50.768;7.308;2022-07-05T00:29:41;5.90;;;2.40;;
5219;SDS011;2629;50.768;7.308;2022-07-05T00:32:10;6.47;;;2.30;;
5219;SDS011;2629;50.768;7.308;2022-07-05T00:34:37;2.97;;;1.77;;
5219;SDS011;2629;50.768;7.308;2022-07-05T00:37:06;4.70;;;2.10;;
5219;SDS011;2629;50.768;7.308;2022-07-05T00:39:34;5.73;;;2.20;;
5219;SDS011;2629;50.768;7.308;2022-07-05T00:42:05;4.30;;;2.37;;
5219;SDS011;2629;50.768;7.308;2022-07-05T00:44:35;5.43;;;2.27;;
5219;SDS011;2629;50.768;7.308;2022-07-05T00:47:06;3.07;;;1.70;;
5219;SDS011;2629;50.768;7.308;2022-07-05T00:49:35;4.73;;;2.40;;
5219;SDS011;2629;50.768;7.308;2022-07-05T00:52:04;4.03;;;2.07;;
5219;SDS011;2629;50.768;7.308;2022-07-05T00:54:48;6.40;;;2.27;;
5219;SDS011;2629;50.768;7.308;2022-07-05T00:57:16;3.47;;;2.07;;
5219;SDS011;2629;50.768;7.308;2022-07-05T00:59:47;5.43;;;2.27;;
5219;SDS011;2629;50.768;7.308;2022-07-05T01:02:14;5.60;;;2.27;;
5219;SDS011;2629;50.768;7.308;2022-07-05T01:04:46;5.17;;;2.20;;
5219;SDS011;2629;50.768;7.308;2022-07-05T01:07:15;4.93;;;2.60;;
5219;SDS011;2629;50.768;7.308;2022-07-05T01:09:43;3.23;;;2.20;;
5219;SDS011;2629;50.768;7.308;2022-07-05T01:12:11;4.50;;;2.63;;
5219;SDS011;2629;50.768;7.308;2022-07-05T01:14:40;5.73;;;2.30;;
5219;SDS011;2629;50.768;7.308;2022-07-05T01:17:10;3.50;;;2.03;;
5219;SDS011;2629;50.768;7.308;2022-07-05T01:19:38;5.40;;;2.30;;
5219;SDS011;2629;50.768;7.308;2022-07-05T01:22:09;3.10;;;1.80;;
5219;SDS011;2629;50.768;7.308;2022-07-05T01:24:45;3.53;;;2.50;;
5219;SDS011;2629;50.768;7.308;2022-07-05T01:27:13;3.83;;;2.67;;
5219;SDS011;2629;50.768;7.308;2022-07-05T01:29:41;6.00;;;2.43;;
5219;SDS011;2629;50.768;7.308;2022-07-05T01:32:09;5.27;;;2.30;;
5219;SDS011;2629;50.768;7.308;2022-07-05T01:34:37;5.00;;;2.23;;
5219;SDS011;2629;50.768;7.308;2022-07-05T01:37:06;3.73;;;2.30;;
5219;SDS011;2629;50.768;7.308;2022-07-05T01:39:35;5.13;;;2.30;;
5219;SDS011;2629;50.768;7.308;2022-07-05T01:42:05;5.20;;;2.40;;
5219;SDS011;2629;50.768;7.308;2022-07-05T01:44:33;3.80;;;2.50;;
5219;SDS011;2629;50.768;7.308;2022-07-05T01:47:03;4.43;;;2.50;;
5219;SDS011;2629;50.768;7.308;2022-07-05T01:49:34;5.30;;;2.13;;
5219;SDS011;2629;50.768;7.308;2022-07-05T01:52:07;5.37;;;2.67;;
5219;SDS011;2629;50.768;7.308;2022-07-05T01:54:36;3.37;;;2.13;;
5219;SDS011;2629;50.768;7.308;2022-07-05T01:57:06;3.83;;;2.43;;
5219;SDS011;2629;50.768;7.308;2022-07-05T01:59:34;5.57;;;2.57;;
5219;SDS011;2629;50.768;7.308;2022-07-05T02:02:03;4.10;;;2.50;;
5219;SDS011;2629;50.768;7.308;2022-07-05T02:04:32;3.43;;;2.23;;
5219;SDS011;2629;50.768;7.308;2022-07-05T02:07:03;3.93;;;2.27;;
5219;SDS011;2629;50.768;7.308;2022-07-05T02:09:31;3.70;;;2.47;;
5219;SDS011;2629;50.768;7.308;2022-07-05T02:11:59;3.77;;;2.20;;
5219;SDS011;2629;50.768;7.308;2022-07-05T02:14:28;2.93;;;2.13;;
5219;SDS011;2629;50.768;7.308;2022-07-05T02:16:57;3.77;;;2.63;;
5219;SDS011;2629;50.768;7.308;2022-07-05T02:19:26;5.50;;;3.00;;
5219;SDS011;2629;50.768;7.308;2022-07-05T02:21:55;5.00;;;2.60;;
5219;SDS011;2629;50.768;7.308;2022-07-05T02:24:22;4.23;;;2.40;;
5219;SDS011;2629;50.768;7.308;2022-07-05T02:27:03;4.20;;;2.30;;
5219;SDS011;2629;50.768;7.308;2022-07-05T02:29:33;3.83;;;2.20;;
5219;SDS011;2629;50.768;7.308;2022-07-05T02:32:01;6.47;;;2.60;;
5219;SDS011;2629;50.768;7.308;2022-07-05T02:34:30;3.93;;;2.50;;
5219;SDS011;2629;50.768;7.308;2022-07-05T02:36:58;4.50;;;2.70;;
5219;SDS011;2629;50.768;7.308;2022-07-05T02:39:27;3.70;;;2.50;;
5219;SDS011;2629;50.768;7.308;2022-07-05T02:41:57;5.87;;;2.20;;
5219;SDS011;2629;50.768;7.308;2022-07-05T02:44:25;4.87;;;3.00;;
5219;SDS011;2629;50.768;7.308;2022-07-05T02:46:55;4.45;;;2.28;;
5219;SDS011;2629;50.768;7.308;2022-07-05T02:49:25;4.65;;;2.90;;
5219;SDS011;2629;50.768;7.308;2022-07-05T02:51:53;4.72;;;2.50;;
5219;SDS011;2629;50.768;7.308;2022-07-05T02:54:21;5.50;;;2.50;;
5219;SDS011;2629;50.768;7.308;2022-07-05T02:56:50;4.47;;;2.50;;
5219;SDS011;2629;50.768;7.308;2022-07-05T02:59:18;7.25;;;2.65;;
5219;SDS011;2629;50.768;7.308;2022-07-05T03:01:46;5.82;;;2.83;;
5219;SDS011;2629;50.768;7.308;2022-07-05T03:04:17;5.63;;;2.92;;
5219;SDS011;2629;50.768;7.308;2022-07-05T03:06:53;4.47;;;2.00;;
5219;SDS011;2629;50.768;7.308;2022-07-05T03:09:24;4.75;;;2.50;;
5219;SDS011;2629;50.768;7.308;2022-07-05T03:11:54;5.60;;;2.40;;
5219;SDS011;2629;50.768;7.308;2022-07-05T03:14:22;4.60;;;2.33;;
5219;SDS011;2629;50.768;7.308;2022-07-05T03:16:51;7.38;;;3.20;;
5219;SDS011;2629;50.768;7.308;2022-07-05T03:19:24;5.75;;;2.30;;
5219;SDS011;2629;50.768;7.308;2022-07-05T03:21:55;3.95;;;2.35;;
5219;SDS011;2629;50.768;7.308;2022-07-05T03:24:23;3.30;;;2.13;;
5219;SDS011;2629;50.768;7.308;2022-07-05T03:26:52;5.80;;;2.70;;
5219;SDS011;2629;50.768;7.308;2022-07-05T03:29:20;3.58;;;2.40;;
5219;SDS011;2629;50.768;7.308;2022-07-05T03:31:48;4.80;;;2.45;;
5219;SDS011;2629;50.768;7.308;2022-07-05T03:34:17;5.60;;;2.63;;
5219;SDS011;2629;50.768;7.308;2022-07-05T03:36:47;4.75;;;2.60;;
5219;SDS011;2629;50.768;7.308;2022-07-05T03:39:17;5.50;;;2.70;;
5219;SDS011;2629;50.768;7.308;2022-07-05T03:41:46;3.87;;;2.90;;
5219;SDS011;2629;50.768;7.308;2022-07-05T03:44:18;8.57;;;2.60;;
5219;SDS011;2629;50.768;7.308;2022-07-05T03:46:46;5.57;;;2.57;;
5219;SDS011;2629;50.768;7.308;2022-07-05T03:49:18;3.70;;;2.30;;
5219;SDS011;2629;50.768;7.308;2022-07-05T03:51:49;6.00;;;2.50;;
5219;SDS011;2629;50.768;7.308;2022-07-05T03:54:17;5.10;;;2.70;;
5219;SDS011;2629;50.768;7.308;2022-07-05T03:56:46;4.00;;;2.40;;
5219;SDS011;2629;50.768;7.308;2022-07-05T03:59:15;5.70;;;2.40;;
5219;SDS011;2629;50.768;7.308;2022-07-05T04:01:43;3.67;;;2.37;;
5219;SDS011;2629;50.768;7.308;2022-07-05T04:04:13;4.27;;;3.33;;
5219;SDS011;2629;50.768;7.308;2022-07-05T04:06:41;6.20;;;2.77;;
5219;SDS011;2629;50.768;7.308;2022-07-05T04:09:11;6.77;;;3.03;;
5219;SDS011;2629;50.768;7.308;2022-07-05T04:11:39;3.50;;;2.27;;
5219;SDS011;2629;50.768;7.308;2022-07-05T04:14:08;6.13;;;2.50;;
5219;SDS011;2629;50.768;7.308;2022-07-05T04:16:37;4.13;;;2.93;;
5219;SDS011;2629;50.768;7.308;2022-07-05T04:19:06;6.40;;;3.23;;
5219;SDS011;2629;50.768;7.308;2022-07-05T04:21:36;3.17;;;2.50;;
5219;SDS011;2629;50.768;7.308;2022-07-05T04:24:04;5.47;;;2.40;;
5219;SDS011;2629;50.768;7.308;2022-07-05T04:26:35;6.10;;;3.23;;
5219;SDS011;2629;50.768;7.308;2022-07-05T04:29:03;8.50;;;3.00;;
5219;SDS011;2629;50.768;7.308;2022-07-05T04:31:35;3.90;;;2.73;;
5219;SDS011;2629;50.768;7.308;2022-07-05T04:34:03;7.03;;;3.13;;
5219;SDS011;2629;50.768;7.308;2022-07-05T04:36:33;4.50;;;3.07;;
5219;SDS011;2629;50.768;7.308;2022-07-05T04:39:03;4.00;;;2.83;;
5219;SDS011;2629;50.768;7.308;2022-07-05T04:41:34;4.87;;;3.07;;
5219;SDS011;2629;50.768;7.308;2022-07-05T04:44:05;3.73;;;2.60;;
5219;SDS011;2629;50.768;7.308;2022-07-05T04:46:34;5.77;;;3.40;;
5219;SDS011;2629;50.768;7.308;2022-07-05T04:51:30;5.60;;;2.77;;
5219;SDS011;2629;50.768;7.308;2022-07-05T04:53:58;4.53;;;3.07;;
5219;SDS011;2629;50.768;7.308;2022-07-05T04:56:26;6.17;;;3.60;;
5219;SDS011;2629;50.768;7.308;2022-07-05T05:01:22;5.40;;;3.17;;
5219;SDS011;2629;50.768;7.308;2022-07-05T05:03:50;6.57;;;3.33;;
5219;SDS011;2629;50.768;7.308;2022-07-05T05:08:46;4.97;;;3.40;;
5219;SDS011;2629;50.768;7.308;2022-07-05T05:11:13;7.60;;;4.07;;
5219;SDS011;2629;50.768;7.308;2022-07-05T05:13:41;8.90;;;4.10;;
5219;SDS011;2629;50.768;7.308;2022-07-05T05:16:13;6.50;;;3.17;;
5219;SDS011;2629;50.768;7.308;2022-07-05T05:18:41;6.40;;;3.40;;
5219;SDS011;2629;50.768;7.308;2022-07-05T05:21:08;5.97;;;3.83;;
5219;SDS011;2629;50.768;7.308;2022-07-05T05:23:36;6.33;;;3.50;;
5219;SDS011;2629;50.768;7.308;2022-07-05T05:26:04;5.50;;;3.60;;
5219;SDS011;2629;50.768;7.308;2022-07-05T05:28:32;4.37;;;3.40;;
5219;SDS011;2629;50.768;7.308;2022-07-05T05:31:00;5.30;;;3.73;;
5219;SDS011;2629;50.768;7.308;2022-07-05T05:33:29;6.63;;;3.70;;
5219;SDS011;2629;50.768;7.308;2022-07-05T05:35:57;4.33;;;3.30;;
5219;SDS011;2629;50.768;7.308;2022-07-05T05:38:25;5.53;;;3.50;;
5219;SDS011;2629;50.768;7.308;2022-07-05T05:40:53;5.00;;;3.40;;
5219;SDS011;2629;50.768;7.308;2022-07-05T05:43:20;6.90;;;3.70;;
5219;SDS011;2629;50.768;7.308;2022-07-05T05:45:48;7.27;;;3.27;;
5219;SDS011;2629;50.768;7.308;2022-07-05T05:48:16;6.57;;;3.63;;
5219;SDS011;2629;50.768;7.308;2022-07-05T05:50:46;11.33;;;4.20;;
5219;SDS011;2629;50.768;7.308;2022-07-05T05:53:14;8.77;;;3.97;;
5219;SDS011;2629;50.768;7.308;2022-07-05T05:55:42;5.37;;;3.60;;
5219;SDS011;2629;50.768;7.308;2022-07-05T05:58:10;12.50;;;4.37;;
5219;SDS011;2629;50.768;7.308;2022-07-05T06:00:38;5.30;;;3.78;;
5219;SDS011;2629;50.768;7.308;2022-07-05T06:03:06;6.33;;;4.20;;
5219;SDS011;2629;50.768;7.308;2022-07-05T06:05:34;6.77;;;4.60;;
5219;SDS011;2629;50.768;7.308;2022-07-05T06:08:03;8.87;;;5.60;;
5219;SDS011;2629;50.768;7.308;2022-07-05T06:10:31;8.93;;;4.90;;
5219;SDS011;2629;50.768;7.308;2022-07-05T06:13:01;8.53;;;5.10;;
5219;SDS011;2629;50.768;7.308;2022-07-05T06:15:28;6.80;;;5.03;;
5219;SDS011;2629;50.768;7.308;2022-07-05T06:17:56;5.40;;;4.77;;
5219;SDS011;2629;50.768;7.308;2022-07-05T06:20:25;10.63;;;5.30;;
5219;SDS011;2629;50.768;7.308;2022-07-05T06:22:54;6.63;;;5.03;;
5219;SDS011;2629;50.768;7.308;2022-07-05T06:25:24;7.97;;;5.30;;
5219;SDS011;2629;50.768;7.308;2022-07-05T06:27:52;6.90;;;5.30;;
5219;SDS011;2629;50.768;7.308;2022-07-05T06:30:22;7.27;;;4.83;;
5219;SDS011;2629;50.768;7.308;2022-07-05T06:32:51;7.70;;;4.67;;
5219;SDS011;2629;50.768;7.308;2022-07-05T06:35:19;6.33;;;4.93;;
5219;SDS011;2629;50.768;7.308;2022-07-05T06:37:48;7.80;;;3.93;;
5219;SDS011;2629;50.768;7.308;2022-07-05T06:40:18;6.53;;;4.90;;
5219;SDS011;2629;50.768;7.308;2022-07-05T06:42:48;9.13;;;5.10;;
5219;SDS011;2629;50.768;7.308;2022-07-05T06:45:17;7.50;;;4.50;;
5219;SDS011;2629;50.768;7.308;2022-07-05T06:47:47;11.53;;;6.90;;
5219;SDS011;2629;50.768;7.308;2022-07-05T06:50:21;7.83;;;4.10;;
5219;SDS011;2629;50.768;7.308;2022-07-05T06:52:49;7.90;;;4.17;;
5219;SDS011;2629;50.768;7.308;2022-07-05T06:55:17;8.55;;;4.00;;
5219;SDS011;2629;50.768;7.308;2022-07-05T06:57:44;9.67;;;4.40;;
5219;SDS011;2629;50.768;7.308;2022-07-05T07:00:34;7.80;;;4.10;;
5219;SDS011;2629;50.768;7.308;2022-07-05T07:03:22;8.30;;;4.07;;
5219;SDS011;2629;50.768;7.308;2022-07-05T07:06:10;5.40;;;4.27;;
5219;SDS011;2629;50.768;7.308;2022-07-05T07:08:38;5.00;;;4.30;;
5219;SDS011;2629;50.768;7.308;2022-07-05T07:11:23;7.57;;;4.10;;
5219;SDS011;2629;50.768;7.308;2022-07-05T07:13:51;5.40;;;4.40;;
5219;SDS011;2629;50.768;7.308;2022-07-05T07:16:20;8.73;;;4.10;;
5219;SDS011;2629;50.768;7.308;2022-07-05T07:18:49;5.10;;;3.30;;
5219;SDS011;2629;50.768;7.308;2022-07-05T07:21:37;7.30;;;3.57;;
5219;SDS011;2629;50.768;7.308;2022-07-05T07:24:05;4.70;;;3.23;;
5219;SDS011;2629;50.768;7.308;2022-07-05T07:26:34;8.83;;;3.43;;
5219;SDS011;2629;50.768;7.308;2022-07-05T07:29:16;7.67;;;3.63;;
5219;SDS011;2629;50.768;7.308;2022-07-05T07:31:46;7.37;;;4.57;;
5219;SDS011;2629;50.768;7.308;2022-07-05T07:34:14;8.60;;;4.47;;
5219;SDS011;2629;50.768;7.308;2022-07-05T07:36:42;5.20;;;3.50;;
5219;SDS011;2629;50.768;7.308;2022-07-05T07:39:10;4.40;;;3.83;;
5219;SDS011;2629;50.768;7.308;2022-07-05T07:41:38;8.10;;;4.33;;
5219;SDS011;2629;50.768;7.308;2022-07-05T07:44:08;8.33;;;3.50;;
5219;SDS011;2629;50.768;7.308;2022-07-05T07:46:36;6.45;;;3.58;;
5219;SDS011;2629;50.768;7.308;2022-07-05T07:49:07;6.70;;;3.67;;
5219;SDS011;2629;50.768;7.308;2022-07-05T07:51:36;6.45;;;3.20;;
5219;SDS011;2629;50.768;7.308;2022-07-05T07:54:04;7.43;;;3.92;;
5219;SDS011;2629;50.768;7.308;2022-07-05T07:56:32;6.00;;;3.60;;
5219;SDS011;2629;50.768;7.308;2022-07-05T07:59:00;7.82;;;4.00;;
5219;SDS011;2629;50.768;7.308;2022-07-05T08:01:28;5.80;;;3.37;;
5219;SDS011;2629;50.768;7.308;2022-07-05T08:03:57;6.45;;;3.75;;
5219;SDS011;2629;50.768;7.308;2022-07-05T08:06:26;5.40;;;3.40;;
5219;SDS011;2629;50.768;7.308;2022-07-05T08:08:56;6.78;;;3.80;;
5219;SDS011;2629;50.768;7.308;2022-07-05T08:11:24;7.75;;;3.40;;
5219;SDS011;2629;50.768;7.308;2022-07-05T08:13:52;8.80;;;3.70;;
5219;SDS011;2629;50.768;7.308;2022-07-05T08:16:19;7.38;;;3.15;;
5219;SDS011;2629;50.768;7.308;2022-07-05T08:18:47;5.55;;;2.80;;
5219;SDS011;2629;50.768;7.308;2022-07-05T08:21:34;6.30;;;3.10;;
5219;SDS011;2629;50.768;7.308;2022-07-05T08:24:04;5.75;;;2.95;;
5219;SDS011;2629;50.768;7.308;2022-07-05T08:26:33;5.68;;;3.00;;
5219;SDS011;2629;50.768;7.308;2022-07-05T08:29:02;5.47;;;3.20;;
5219;SDS011;2629;50.768;7.308;2022-07-05T08:31:35;5.75;;;2.80;;
5219;SDS011;2629;50.768;7.308;2022-07-05T08:34:04;7.47;;;3.00;;
5219;SDS011;2629;50.768;7.308;2022-07-05T08:36:32;5.85;;;3.05;;
5219;SDS011;2629;50.768;7.308;2022-07-05T08:39:01;6.78;;;3.00;;
5219;SDS011;2629;50.768;7.308;2022-07-05T08:41:29;5.60;;;2.70;;
5219;SDS011;2629;50.768;7.308;2022-07-05T08:44:00;6.83;;;2.70;;
5219;SDS011;2629;50.768;7.308;2022-07-05T08:46:30;4.13;;;2.40;;
5219;SDS011;2629;50.768;7.308;2022-07-05T08:48:58;4.65;;;2.42;;
5219;SDS011;2629;50.768;7.308;2022-07-05T08:51:36;4.75;;;2.50;;
5219;SDS011;2629;50.768;7.308;2022-07-05T08:54:07;4.47;;;2.80;;
5219;SDS011;2629;50.768;7.308;2022-07-05T08:56:39;5.18;;;2.80;;
5219;SDS011;2629;50.768;7.308;2022-07-05T08:59:28;5.13;;;2.40;;
5219;SDS011;2629;50.768;7.308;2022-07-05T09:01:56;4.70;;;2.42;;
5219;SDS011;2629;50.768;7.308;2022-07-05T09:04:24;5.13;;;2.47;;
5219;SDS011;2629;50.768;7.308;2022-07-05T09:06:54;5.30;;;2.60;;
5219;SDS011;2629;50.768;7.308;2022-07-05T09:09:26;4.57;;;2.40;;
5219;SDS011;2629;50.768;7.308;2022-07-05T09:11:54;5.05;;;2.15;;
5219;SDS011;2629;50.768;7.308;2022-07-05T09:14:43;5.68;;;2.50;;
5219;SDS011;2629;50.768;7.308;2022-07-05T09:17:11;5.50;;;2.20;;
5219;SDS011;2629;50.768;7.308;2022-07-05T09:19:40;4.50;;;2.30;;
5219;SDS011;2629;50.768;7.308;2022-07-05T09:22:09;7.50;;;2.50;;
5219;SDS011;2629;50.768;7.308;2022-07-05T09:24:45;6.67;;;2.70;;
5219;SDS011;2629;50.768;7.308;2022-07-05T09:27:14;4.63;;;2.10;;
5219;SDS011;2629;50.768;7.308;2022-07-05T09:29:52;6.73;;;2.23;;
5219;SDS011;2629;50.768;7.308;2022-07-05T09:32:28;4.70;;;2.20;;
5219;SDS011;2629;50.768;7.308;2022-07-05T09:34:56;3.77;;;1.83;;
5219;SDS011;2629;50.768;7.308;2022-07-05T09:37:32;4.67;;;2.67;;
5219;SDS011;2629;50.768;7.308;2022-07-05T09:40:11;9.43;;;2.93;;
5219;SDS011;2629;50.768;7.308;2022-07-05T09:42:46;5.00;;;2.20;;
5219;SDS011;2629;50.768;7.308;2022-07-05T09:45:21;6.00;;;2.53;;
5219;SDS011;2629;50.768;7.308;2022-07-05T09:47:49;7.17;;;2.40;;
5219;SDS011;2629;50.768;7.308;2022-07-05T09:50:37;4.67;;;2.53;;
5219;SDS011;2629;50.768;7.308;2022-07-05T09:53:25;4.20;;;2.43;;
5219;SDS011;2629;50.768;7.308;2022-07-05T09:56:01;4.43;;;2.60;;
5219;SDS011;2629;50.768;7.308;2022-07-05T09:58:29;5.00;;;2.53;;
5219;SDS011;2629;50.768;7.308;2022-07-05T10:00:58;5.95;;;2.40;;
5219;SDS011;2629;50.768;7.308;2022-07-05T10:03:26;6.03;;;2.10;;
5219;SDS011;2629;50.768;7.308;2022-07-05T10:05:54;3.15;;;1.80;;
5219;SDS011;2629;50.768;7.308;2022-07-05T10:08:37;4.13;;;2.30;;
5219;SDS011;2629;50.768;7.308;2022-07-05T10:11:07;5.88;;;1.90;;
5219;SDS011;2629;50.768;7.308;2022-07-05T10:13:35;5.57;;;2.28;;
5219;SDS011;2629;50.768;7.308;2022-07-05T10:16:03;3.40;;;2.10;;
5219;SDS011;2629;50.768;7.308;2022-07-05T10:18:31;4.83;;;2.00;;
5219;SDS011;2629;50.768;7.308;2022-07-05T10:21:00;4.80;;;1.90;;
5219;SDS011;2629;50.768;7.308;2022-07-05T10:23:30;5.00;;;2.25;;
5219;SDS011;2629;50.768;7.308;2022-07-05T10:25:59;5.65;;;2.20;;
5219;SDS011;2629;50.768;7.308;2022-07-05T10:28:28;4.00;;;1.80;;
5219;SDS011;2629;50.768;7.308;2022-07-05T10:30:57;3.30;;;1.60;;
5219;SDS011;2629;50.768;7.308;2022-07-05T10:33:26;5.40;;;1.60;;
5219;SDS011;2629;50.768;7.308;2022-07-05T10:35:55;4.70;;;1.60;;
5219;SDS011;2629;50.768;7.308;2022-07-05T10:38:23;5.43;;;1.80;;
5219;SDS011;2629;50.768;7.308;2022-07-05T10:40:53;5.20;;;2.28;;
5219;SDS011;2629;50.768;7.308;2022-07-05T10:43:22;4.38;;;1.67;;
5219;SDS011;2629;50.768;7.308;2022-07-05T10:45:52;4.38;;;1.60;;
5219;SDS011;2629;50.768;7.308;2022-07-05T10:48:20;3.90;;;1.70;;
5219;SDS011;2629;50.768;7.308;2022-07-05T10:50:50;4.20;;;1.80;;
5219;SDS011;2629;50.768;7.308;2022-07-05T10:53:20;5.70;;;1.65;;
5219;SDS011;2629;50.768;7.308;2022-07-05T10:55:50;4.73;;;1.90;;
5219;SDS011;2629;50.768;7.308;2022-07-05T10:58:24;4.50;;;1.73;;
5219;SDS011;2629;50.768;7.308;2022-07-05T11:04:19;3.80;;;1.40;;
5219;SDS011;2629;50.768;7.308;2022-07-05T11:06:53;3.90;;;1.60;;
5219;SDS011;2629;50.768;7.308;2022-07-05T11:09:21;4.97;;;1.60;;
5219;SDS011;2629;50.768;7.308;2022-07-05T11:12:04;6.07;;;1.60;;
5219;SDS011;2629;50.768;7.308;2022-07-05T11:14:53;4.85;;;1.70;;
5219;SDS011;2629;50.768;7.308;2022-07-05T11:17:31;4.35;;;1.85;;
5219;SDS011;2629;50.768;7.308;2022-07-05T11:20:27;3.78;;;1.60;;
5219;SDS011;2629;50.768;7.308;2022-07-05T11:23:09;4.63;;;1.90;;
5219;SDS011;2629;50.768;7.308;2022-07-05T11:25:39;3.83;;;1.80;;
5219;SDS011;2629;50.768;7.308;2022-07-05T11:28:12;31.23;;;3.40;;
5219;SDS011;2629;50.768;7.308;2022-07-05T11:30:44;3.30;;;1.70;;
5219;SDS011;2629;50.768;7.308;2022-07-05T11:33:25;4.30;;;1.70;;
5219;SDS011;2629;50.768;7.308;2022-07-05T11:35:56;4.47;;;1.50;;
5219;SDS011;2629;50.768;7.308;2022-07-05T11:38:24;4.65;;;1.73;;
5219;SDS011;2629;50.768;7.308;2022-07-05T11:41:11;5.40;;;2.00;;
5219;SDS011;2629;50.768;7.308;2022-07-05T11:43:40;4.65;;;1.70;;
5219;SDS011;2629;50.768;7.308;2022-07-05T11:46:08;5.90;;;1.70;;
5219;SDS011;2629;50.768;7.308;2022-07-05T11:48:56;4.22;;;1.67;;
5219;SDS011;2629;50.768;7.308;2022-07-05T11:51:26;4.90;;;1.70;;
5219;SDS011;2629;50.768;7.308;2022-07-05T11:53:54;5.47;;;1.75;;
5219;SDS011;2629;50.768;7.308;2022-07-05T11:56:42;3.38;;;1.60;;
5219;SDS011;2629;50.768;7.308;2022-07-05T11:59:17;4.32;;;1.80;;
5219;SDS011;2629;50.768;7.308;2022-07-05T12:01:45;5.45;;;2.10;;
5219;SDS011;2629;50.768;7.308;2022-07-05T12:04:20;4.80;;;1.67;;
5219;SDS011;2629;50.768;7.308;2022-07-05T12:06:50;4.60;;;1.70;;
5219;SDS011;2629;50.768;7.308;2022-07-05T12:09:21;3.90;;;1.70;;
5219;SDS011;2629;50.768;7.308;2022-07-05T12:11:51;3.57;;;1.90;;
5219;SDS011;2629;50.768;7.308;2022-07-05T12:14:36;2.83;;;1.55;;
5219;SDS011;2629;50.768;7.308;2022-07-05T12:17:11;5.50;;;2.00;;
5219;SDS011;2629;50.768;7.308;2022-07-05T12:19:48;4.00;;;1.73;;
5219;SDS011;2629;50.768;7.308;2022-07-05T12:22:28;6.55;;;1.70;;
5219;SDS011;2629;50.768;7.308;2022-07-05T12:24:59;3.35;;;1.75;;
5219;SDS011;2629;50.768;7.308;2022-07-05T12:27:28;3.67;;;1.52;;
5219;SDS011;2629;50.768;7.308;2022-07-05T12:29:57;3.75;;;1.40;;
5219;SDS011;2629;50.768;7.308;2022-07-05T12:32:28;5.15;;;1.60;;
5219;SDS011;2629;50.768;7.308;2022-07-05T12:34:57;3.05;;;1.50;;
5219;SDS011;2629;50.768;7.308;2022-07-05T12:37:33;4.53;;;1.95;;
5219;SDS011;2629;50.768;7.308;2022-07-05T12:40:02;3.80;;;1.60;;
5219;SDS011;2629;50.768;7.308;2022-07-05T12:42:32;3.77;;;1.70;;
5219;SDS011;2629;50.768;7.308;2022-07-05T12:45:08;5.43;;;1.80;;
5219;SDS011;2629;50.768;7.308;2022-07-05T12:47:36;4.50;;;1.85;;
5219;SDS011;2629;50.768;7.308;2022-07-05T12:50:04;3.17;;;1.52;;
5219;SDS011;2629;50.768;7.308;2022-07-05T12:52:35;4.80;;;1.65;;
5219;SDS011;2629;50.768;7.308;2022-07-05T12:55:48;4.22;;;1.52;;
5219;SDS011;2629;50.768;7.308;2022-07-05T12:58:33;3.70;;;2.00;;
5219;SDS011;2629;50.768;7.308;2022-07-05T13:01:18;3.00;;;1.50;;
5219;SDS011;2629;50.768;7.308;2022-07-05T13:03:57;4.83;;;2.00;;
5219;SDS011;2629;50.768;7.308;2022-07-05T13:06:39;3.40;;;1.52;;
5219;SDS011;2629;50.768;7.308;2022-07-05T13:09:09;4.50;;;1.83;;
5219;SDS011;2629;50.768;7.308;2022-07-05T13:11:37;3.58;;;1.58;;
5219;SDS011;2629;50.768;7.308;2022-07-05T13:14:05;3.97;;;1.80;;
5219;SDS011;2629;50.768;7.308;2022-07-05T13:16:33;4.25;;;1.77;;
5219;SDS011;2629;50.768;7.308;2022-07-05T13:19:09;3.40;;;1.60;;
5219;SDS011;2629;50.768;7.308;2022-07-05T13:21:38;3.63;;;1.75;;
5219;SDS011;2629;50.768;7.308;2022-07-05T13:24:06;3.90;;;1.70;;
5219;SDS011;2629;50.768;7.308;2022-07-05T13:26:36;4.15;;;1.70;;
5219;SDS011;2629;50.768;7.308;2022-07-05T13:29:03;4.10;;;1.60;;
5219;SDS011;2629;50.768;7.308;2022-07-05T13:31:31;5.28;;;1.73;;
5219;SDS011;2629;50.768;7.308;2022-07-05T13:33:59;3.33;;;1.50;;
5219;SDS011;2629;50.768;7.308;2022-07-05T13:36:27;3.80;;;1.63;;
5219;SDS011;2629;50.768;7.308;2022-07-05T13:38:55;4.40;;;1.53;;
5219;SDS011;2629;50.768;7.308;2022-07-05T13:41:24;3.43;;;1.40;;
5219;SDS011;2629;50.768;7.308;2022-07-05T13:43:52;4.40;;;1.83;;
5219;SDS011;2629;50.768;7.308;2022-07-05T13:46:20;3.92;;;1.60;;
5219;SDS011;2629;50.768;7.308;2022-07-05T13:48:48;4.97;;;1.50;;
5219;SDS011;2629;50.768;7.308;2022-07-05T13:51:16;3.90;;;1.40;;
5219;SDS011;2629;50.768;7.308;2022-07-05T13:53:44;3.83;;;1.70;;
5219;SDS011;2629;50.768;7.308;2022-07-05T13:56:11;4.32;;;1.38;;
5219;SDS011;2629;50.768;7.308;2022-07-05T13:58:41;6.13;;;1.50;;
5219;SDS011;2629;50.768;7.308;2022-07-05T14:01:08;6.40;;;1.70;;
5219;SDS011;2629;50.768;7.308;2022-07-05T14:03:37;3.00;;;1.40;;
5219;SDS011;2629;50.768;7.308;2022-07-05T14:06:05;3.13;;;1.60;;
5219;SDS011;2629;50.768;7.308;2022-07-05T14:08:33;3.20;;;1.40;;
5219;SDS011;2629;50.768;7.308;2022-07-05T14:11:00;3.90;;;1.40;;
5219;SDS011;2629;50.768;7.308;2022-07-05T14:13:28;2.90;;;1.40;;
5219;SDS011;2629;50.768;7.308;2022-07-05T14:15:57;3.90;;;1.40;;
5219;SDS011;2629;50.768;7.308;2022-07-05T14:18:25;3.83;;;1.50;;
5219;SDS011;2629;50.768;7.308;2022-07-05T14:20:53;3.27;;;1.50;;
5219;SDS011;2629;50.768;7.308;2022-07-05T14:23:21;5.90;;;1.70;;
5219;SDS011;2629;50.768;7.308;2022-07-05T14:25:49;3.63;;;1.52;;
5219;SDS011;2629;50.768;7.308;2022-07-05T14:28:17;4.53;;;1.30;;
5219;SDS011;2629;50.768;7.308;2022-07-05T14:30:45;3.35;;;1.40;;
5219;SDS011;2629;50.768;7.308;2022-07-05T14:33:14;4.57;;;1.50;;
5219;SDS011;2629;50.768;7.308;2022-07-05T14:35:43;4.40;;;1.50;;
5219;SDS011;2629;50.768;7.308;2022-07-05T14:38:11;3.60;;;1.60;;
5219;SDS011;2629;50.768;7.308;2022-07-05T14:40:38;4.30;;;1.70;;
5219;SDS011;2629;50.768;7.308;2022-07-05T14:43:06;4.10;;;1.48;;
5219;SDS011;2629;50.768;7.308;2022-07-05T14:45:34;4.80;;;1.50;;
5219;SDS011;2629;50.768;7.308;2022-07-05T14:48:02;4.43;;;1.50;;
5219;SDS011;2629;50.768;7.308;2022-07-05T14:50:31;3.33;;;1.30;;
5219;SDS011;2629;50.768;7.308;2022-07-05T14:52:59;3.28;;;1.30;;
5219;SDS011;2629;50.768;7.308;2022-07-05T14:55:31;4.43;;;1.50;;
5219;SDS011;2629;50.768;7.308;2022-07-05T14:58:00;5.20;;;1.50;;
5219;SDS011;2629;50.768;7.308;2022-07-05T15:00:27;3.45;;;1.55;;
5219;SDS011;2629;50.768;7.308;2022-07-05T15:02:55;3.97;;;1.30;;
5219;SDS011;2629;50.768;7.308;2022-07-05T15:05:25;4.20;;;1.50;;
5219;SDS011;2629;50.768;7.308;2022-07-05T15:07:55;4.20;;;1.60;;
5219;SDS011;2629;50.768;7.308;2022-07-05T15:10:23;3.88;;;1.50;;
5219;SDS011;2629;50.768;7.308;2022-07-05T15:12:51;3.97;;;1.80;;
5219;SDS011;2629;50.768;7.308;2022-07-05T15:15:19;3.55;;;1.40;;
5219;SDS011;2629;50.768;7.308;2022-07-05T15:17:46;6.07;;;1.70;;
5219;SDS011;2629;50.768;7.308;2022-07-05T15:20:14;3.00;;;1.50;;
5219;SDS011;2629;50.768;7.308;2022-07-05T15:22:45;4.80;;;1.60;;
5219;SDS011;2629;50.768;7.308;2022-07-05T15:25:15;4.30;;;1.50;;
5219;SDS011;2629;50.768;7.308;2022-07-05T15:27:43;3.00;;;1.50;;
5219;SDS011;2629;50.768;7.308;2022-07-05T15:30:11;4.20;;;1.90;;
5219;SDS011;2629;50.768;7.308;2022-07-05T15:32:41;4.20;;;1.60;;
5219;SDS011;2629;50.768;7.308;2022-07-05T15:35:09;3.50;;;1.50;;
5219;SDS011;2629;50.768;7.308;2022-07-05T15:37:37;5.20;;;1.60;;
5219;SDS011;2629;50.768;7.308;2022-07-05T15:40:06;4.15;;;1.60;;
5219;SDS011;2629;50.768;7.308;2022-07-05T15:42:36;3.20;;;1.50;;
5219;SDS011;2629;50.768;7.308;2022-07-05T15:45:04;3.45;;;1.88;;
5219;SDS011;2629;50.768;7.308;2022-07-05T15:47:32;3.85;;;1.40;;